createdAt,value
2019-06-07T00:00:40.311Z,13.20
2019-06-07T00:05:48.672Z,13.20
2019-06-07T00:10:55.935Z,13.10
2019-06-07T00:16:03.320Z,13.20
2019-06-07T00:21:11.794Z,13.00
2019-06-07T00:26:21.219Z,13.00
2019-06-07T00:31:29.499Z,13.10
2019-06-07T00:36:37.684Z,13.00
2019-06-07T00:41:45.423Z,13.10
2019-06-07T00:46:52.676Z,13.10
2019-06-07T00:52:00.018Z,13.00
2019-06-07T00:57:07.688Z,12.90
2019-06-07T01:02:18.551Z,12.80
2019-06-07T01:07:26.021Z,12.70
2019-06-07T01:12:33.280Z,12.70
2019-06-07T01:18:32.123Z,12.60
2019-06-07T01:22:51.648Z,12.50
2019-06-07T01:27:59.473Z,12.50
2019-06-07T01:33:10.011Z,12.40
2019-06-07T01:38:21.323Z,12.30
2019-06-07T01:43:30.463Z,12.20
2019-06-07T01:48:49.053Z,12.20
2019-06-07T01:53:46.363Z,12.10
2019-06-07T01:58:53.702Z,12.00
2019-06-07T02:04:01.112Z,12.00
2019-06-07T02:09:09.337Z,11.90
2019-06-07T02:14:17.380Z,12.00
2019-06-07T02:19:27.459Z,12.00
2019-06-07T02:24:36.466Z,12.00
2019-06-07T02:29:44.839Z,12.10
2019-06-07T02:34:51.998Z,12.10
2019-06-07T02:40:00.278Z,12.20
2019-06-07T02:45:10.863Z,12.20
2019-06-07T02:50:19.532Z,12.20
2019-06-07T02:55:31.214Z,12.30
2019-06-07T03:01:09.045Z,12.30
2019-06-07T03:06:00.290Z,12.20
2019-06-07T03:11:08.653Z,12.30
2019-06-07T03:16:20.211Z,12.40
2019-06-07T03:21:31.326Z,12.40
2019-06-07T03:27:30.543Z,12.40
2019-06-07T03:31:49.191Z,12.40
2019-06-07T03:36:56.563Z,12.40
2019-06-07T03:42:06.708Z,12.40
2019-06-07T03:47:13.368Z,12.40
2019-06-07T03:52:20.794Z,12.40
2019-06-07T03:57:30.376Z,12.30
2019-06-07T04:02:41.519Z,12.30
2019-06-07T04:07:47.264Z,12.20
2019-06-07T04:12:54.609Z,12.30
2019-06-07T04:18:04.014Z,12.30
2019-06-07T04:23:27.288Z,12.40
2019-06-07T04:28:20.987Z,12.30
2019-06-07T04:33:50.153Z,12.40
2019-06-07T04:38:59.012Z,12.50
2019-06-07T04:44:16.025Z,12.60
2019-06-07T04:49:27.239Z,12.70
2019-06-07T04:54:52.493Z,12.90
2019-06-07T05:00:12.742Z,12.90
2019-06-07T05:05:29.294Z,13.10
2019-06-07T05:10:43.065Z,13.10
2019-06-07T05:15:48.853Z,13.20
2019-06-07T05:21:15.478Z,13.20
2019-06-07T05:26:30.479Z,13.30
2019-06-07T05:31:44.201Z,13.40
2019-06-07T05:37:11.123Z,13.40
2019-06-07T05:42:03.775Z,13.50
2019-06-07T05:47:29.608Z,13.70
2019-06-07T05:52:40.491Z,13.80
2019-06-07T05:57:50.969Z,13.90
2019-06-07T06:03:05.493Z,13.90
2019-06-07T06:08:06.792Z,14.00
2019-06-07T06:13:14.665Z,13.90
2019-06-07T06:18:45.737Z,14.00
2019-06-07T06:23:53.840Z,14.00
2019-06-07T06:29:01.366Z,14.20
2019-06-07T06:34:09.422Z,14.30
2019-06-07T06:39:16.806Z,14.40
2019-06-07T06:44:24.624Z,14.60
2019-06-07T06:49:31.880Z,14.60
2019-06-07T06:54:46.092Z,14.70
2019-06-07T06:59:51.090Z,14.80
2019-06-07T07:05:17.235Z,14.90
2019-06-07T07:10:45.736Z,15.00
2019-06-07T07:15:58.172Z,14.90
2019-06-07T07:21:02.945Z,15.10
2019-06-07T07:26:12.500Z,15.10
2019-06-07T07:31:19.695Z,15.10
2019-06-07T07:36:38.655Z,14.90
2019-06-07T07:42:13.826Z,15.00
2019-06-07T07:46:58.004Z,14.80
2019-06-07T07:52:05.443Z,14.90
2019-06-07T07:57:30.938Z,14.80
2019-06-07T08:02:38.413Z,14.90
2019-06-07T08:07:49.985Z,15.10
2019-06-07T08:13:19.182Z,15.00
2019-06-07T08:18:05.862Z,14.90
2019-06-07T08:23:31.548Z,15.10
2019-06-07T08:28:38.853Z,15.00
2019-06-07T08:33:47.771Z,15.20
2019-06-07T08:39:00.442Z,15.20
2019-06-07T08:44:22.403Z,15.40
2019-06-07T08:49:29.322Z,15.60
2019-06-07T08:54:36.803Z,15.80
2019-06-07T08:59:53.041Z,16.30
2019-06-07T09:05:10.715Z,16.30
2019-06-07T09:10:15.176Z,16.60
2019-06-07T09:15:24.435Z,16.60
2019-06-07T09:20:49.966Z,17.00
2019-06-07T09:26:09.839Z,17.20
2019-06-07T09:31:10.414Z,17.30
2019-06-07T09:36:16.275Z,17.50
2019-06-07T09:41:45.534Z,17.80
2019-06-07T09:46:35.106Z,17.80
2019-06-07T09:51:42.339Z,18.10
2019-06-07T09:56:50.308Z,18.20
2019-06-07T10:01:59.528Z,18.20
2019-06-07T10:07:16.956Z,18.20
2019-06-07T10:12:28.038Z,18.40
2019-06-07T10:17:36.390Z,18.60
2019-06-07T10:23:03.709Z,19.10
2019-06-07T10:28:29.474Z,19.20
2019-06-07T10:33:54.690Z,19.10
2019-06-07T10:39:03.110Z,19.30
2019-06-07T10:44:12.066Z,19.80
2019-06-07T10:49:19.298Z,19.90
2019-06-07T10:54:30.665Z,20.20
2019-06-07T10:59:37.020Z,20.40
2019-06-07T11:04:44.284Z,21.00
2019-06-07T11:10:06.297Z,21.00
2019-06-07T11:15:02.157Z,20.80
2019-06-07T11:20:12.477Z,21.10
2019-06-07T11:25:38.074Z,21.40
2019-06-07T11:30:45.322Z,21.50
2019-06-07T11:35:53.211Z,21.70
2019-06-07T11:41:01.248Z,21.70
2019-06-07T11:46:12.948Z,22.00
2019-06-07T11:51:21.208Z,22.40
2019-06-07T11:56:28.845Z,22.40
2019-06-07T12:01:37.381Z,22.70
2019-06-07T12:06:45.625Z,23.00
2019-06-07T12:11:52.820Z,22.80
2019-06-07T12:17:01.291Z,23.40
2019-06-07T12:22:09.870Z,23.10
2019-06-07T12:27:26.441Z,23.20
2019-06-07T12:32:33.743Z,23.40
2019-06-07T12:37:44.872Z,23.30
2019-06-07T12:42:53.173Z,23.40
2019-06-07T12:48:01.357Z,23.20
2019-06-07T12:53:09.198Z,23.20
2019-06-07T12:58:16.363Z,23.50
2019-06-07T13:03:24.696Z,23.40
2019-06-07T13:08:38.716Z,24.00
2019-06-07T13:13:48.780Z,24.00
2019-06-07T13:18:56.672Z,24.40
2019-06-07T13:24:03.904Z,24.80
2019-06-07T13:29:31.990Z,24.70
2019-06-07T13:34:51.308Z,24.80
2019-06-07T13:39:58.633Z,25.00
2019-06-07T13:45:08.424Z,24.40
2019-06-07T13:50:33.827Z,24.30
2019-06-07T13:55:53.910Z,24.30
2019-06-07T14:01:01.091Z,24.20
2019-06-07T14:06:10.316Z,24.00
2019-06-07T14:11:50.132Z,23.60
2019-06-07T14:16:55.005Z,24.30
2019-06-07T14:22:03.473Z,24.40
2019-06-07T14:27:29.721Z,24.40
2019-06-07T14:32:52.757Z,24.80
2019-06-07T14:38:00.826Z,25.10
2019-06-07T14:43:08.146Z,25.10
2019-06-07T14:48:27.888Z,25.00
2019-06-07T14:53:53.534Z,25.20
2019-06-07T14:59:02.660Z,25.00
2019-06-07T15:04:10.908Z,25.10
2019-06-07T15:09:37.359Z,25.00
2019-06-07T15:14:54.118Z,25.00
2019-06-07T15:20:06.846Z,24.90
2019-06-07T15:25:15.922Z,24.80
2019-06-07T15:30:23.337Z,25.10
2019-06-07T15:35:35.959Z,24.50
2019-06-07T15:40:42.432Z,24.30
2019-06-07T15:46:02.326Z,24.30
2019-06-07T15:51:30.548Z,24.20
2019-06-07T15:56:49.981Z,24.50
2019-06-07T16:01:57.574Z,24.50
2019-06-07T16:07:08.568Z,24.20
2019-06-07T16:12:18.471Z,24.20
2019-06-07T16:17:28.302Z,24.10
2019-06-07T16:22:35.873Z,24.30
2019-06-07T16:27:44.794Z,24.00
2019-06-07T16:32:52.374Z,24.00
2019-06-07T16:38:00.718Z,24.00
2019-06-07T16:43:17.537Z,24.10
2019-06-07T16:48:20.099Z,24.10
2019-06-07T16:53:27.936Z,24.00
2019-06-07T16:58:35.348Z,23.80
2019-06-07T17:03:43.533Z,23.60
2019-06-07T17:08:50.979Z,23.80
2019-06-07T17:13:59.277Z,23.80
2019-06-07T17:19:07.663Z,23.90
2019-06-07T17:24:16.347Z,23.80
2019-06-07T17:29:24.226Z,23.50
2019-06-07T17:34:35.492Z,23.20
2019-06-07T17:39:44.979Z,23.40
2019-06-07T17:44:52.319Z,22.80
2019-06-07T17:49:59.361Z,22.90
2019-06-07T17:55:11.709Z,22.90
2019-06-07T18:00:33.269Z,22.80
2019-06-07T18:05:32.885Z,22.90
2019-06-07T18:10:40.814Z,22.50
2019-06-07T18:16:07.701Z,22.40
2019-06-07T18:21:33.265Z,22.30
2019-06-07T18:26:42.418Z,22.10
2019-06-07T18:31:49.223Z,22.10
2019-06-07T18:37:02.973Z,22.00
2019-06-07T18:42:28.288Z,21.60
2019-06-07T18:47:53.730Z,21.30
2019-06-07T18:53:02.481Z,21.20
2019-06-07T18:58:12.941Z,20.90
2019-06-07T19:03:21.238Z,20.70
2019-06-07T19:08:52.157Z,20.70
2019-06-07T19:14:03.624Z,20.50
2019-06-07T19:19:11.188Z,20.50
2019-06-07T19:24:18.225Z,20.30
2019-06-07T19:29:26.174Z,20.00
2019-06-07T19:34:33.514Z,20.00
2019-06-07T19:39:41.555Z,20.00
2019-06-07T19:44:54.368Z,19.90
2019-06-07T19:49:58.810Z,19.90
2019-06-07T19:55:09.723Z,19.70
2019-06-07T20:00:17.325Z,19.70
2019-06-07T20:05:28.485Z,19.50
2019-06-07T20:10:35.489Z,19.50
2019-06-07T20:15:44.616Z,19.30
2019-06-07T20:20:51.596Z,19.10
2019-06-07T20:26:00.110Z,19.10
2019-06-07T20:31:08.211Z,19.10
2019-06-07T20:36:16.447Z,19.10
2019-06-07T20:41:24.401Z,19.10
2019-06-07T20:46:31.295Z,19.10
2019-06-07T20:51:38.379Z,19.00
2019-06-07T20:56:45.538Z,19.00
2019-06-07T21:01:56.320Z,19.00
2019-06-07T21:07:08.136Z,18.90
2019-06-07T21:12:28.622Z,18.90
2019-06-07T21:17:37.622Z,19.00
2019-06-07T21:22:45.719Z,19.00
2019-06-07T21:27:52.733Z,18.90
2019-06-07T21:33:01.357Z,18.80
2019-06-07T21:38:09.927Z,18.90
2019-06-07T21:43:17.134Z,18.70
2019-06-07T21:48:28.841Z,18.80
2019-06-07T21:53:54.501Z,18.70
2019-06-07T21:59:03.459Z,18.80
2019-06-07T22:04:11.720Z,18.70
2019-06-07T22:09:36.827Z,18.70
2019-06-07T22:14:44.610Z,18.70
2019-06-07T22:19:51.720Z,18.60
2019-06-07T22:24:59.230Z,18.60
2019-06-07T22:30:10.515Z,18.60
2019-06-07T22:35:17.690Z,18.80
2019-06-07T22:40:25.824Z,18.90
2019-06-07T22:45:33.256Z,18.80
2019-06-07T23:09:02.111Z,19.10
2019-06-07T23:14:11.213Z,19.30
2019-06-07T23:19:18.535Z,19.40
2019-06-07T23:24:26.618Z,18.40
2019-06-07T23:29:34.160Z,17.60
2019-06-07T23:34:42.164Z,17.20
2019-06-07T23:39:49.711Z,17.00
2019-06-07T23:44:58.325Z,16.90
2019-06-07T23:50:08.359Z,16.60
2019-06-07T23:55:33.612Z,16.40
